Time;durP1;ratioP1;P1;durP2;ratioP2;P2;SDS_P1;SDS_P2;PMS_P1;PMS_P2;Temp;Humidity;BMP_temperature;BMP_pressure;BME280_temperature;BME280_humidity;BME280_pressure;Samples;Min_cycle;Max_cycle;Signal;HPM_P1;HPM_P2
2022/01/16 00:00:19;;;;;;;2.60;1.57;;;;;;;2.33;54.58;99530.62;1746252;81;21081;-43
2022/01/16 00:05:24;;;;;;;3.80;1.22;;;;;;;2.28;54.54;99528.05;1757295;81;21742;-43
2022/01/16 00:07:51;;;;;;;3.47;1.30;;;;;;;2.27;54.59;99529.96;1760336;80;20974;-43
2022/01/16 00:10:18;;;;;;;5.10;1.70;;;;;;;2.25;54.24;99531.34;1761526;81;20969;-43
2022/01/16 00:12:49;;;;;;;3.58;1.85;;;;;;;2.26;54.35;99534.27;1761526;81;21030;-43
2022/01/16 00:15:17;;;;;;;4.33;1.50;;;;;;;2.26;54.67;99530.25;1761469;81;20962;-43
2022/01/16 00:17:57;;;;;;;2.67;1.20;;;;;;;2.27;54.60;99535.31;1755385;80;21097;-43
2022/01/16 00:20:23;;;;;;;4.45;1.30;;;;;;;2.30;54.68;99540.05;1748581;81;20933;-43
2022/01/16 00:22:50;;;;;;;3.52;1.20;;;;;;;2.33;54.79;99541.31;1731761;82;21552;-43
2022/01/16 00:25:17;;;;;;;2.05;1.10;;;;;;;2.38;54.91;99541.21;1731288;82;20990;-43
2022/01/16 00:27:44;;;;;;;2.60;1.10;;;;;;;2.40;54.27;99552.41;1749318;81;21077;-43
2022/01/16 00:30:11;;;;;;;3.30;1.10;;;;;;;2.39;54.64;99549.48;1761630;80;21097;-43
2022/01/16 00:32:38;;;;;;;2.37;1.07;;;;;;;2.37;54.00;99550.35;1761858;81;21001;-43
2022/01/16 00:35:06;;;;;;;2.42;1.12;;;;;;;2.35;53.61;99547.17;1740621;81;20953;-43
2022/01/16 00:37:32;;;;;;;2.12;0.90;;;;;;;2.37;53.83;99530.28;1745238;81;21021;-43
2022/01/16 00:39:59;;;;;;;2.52;1.00;;;;;;;2.35;53.65;99519.08;1744918;81;21480;-43
2022/01/16 00:42:25;;;;;;;1.60;0.88;;;;;;;2.34;53.37;99528.98;1747820;81;21965;-43
2022/01/16 00:44:52;;;;;;;2.98;1.20;;;;;;;2.35;53.18;99540.48;1759638;81;21058;-43
2022/01/16 00:47:19;;;;;;;3.22;0.93;;;;;;;2.36;53.47;99554.11;1753666;81;20985;-43
2022/01/16 00:49:45;;;;;;;1.80;0.93;;;;;;;2.35;53.76;99553.32;1755070;80;21021;-43
2022/01/16 00:52:11;;;;;;;1.67;1.10;;;;;;;2.36;54.00;99544.75;1758915;80;21088;-43
2022/01/16 00:54:38;;;;;;;2.08;1.07;;;;;;;2.35;53.91;99544.50;1769794;81;21092;-43
2022/01/16 00:57:06;;;;;;;2.87;1.25;;;;;;;2.38;54.11;99554.59;1759506;80;21077;-43
2022/01/16 00:59:32;;;;;;;6.05;1.10;;;;;;;2.41;53.66;99543.30;1731868;81;21069;-43
2022/01/16 01:02:00;;;;;;;3.45;0.90;;;;;;;2.43;53.84;99535.75;1731932;81;21033;-43
2022/01/16 01:04:27;;;;;;;3.22;1.00;;;;;;;2.44;53.88;99516.73;1737578;81;21025;-43
2022/01/16 01:06:55;;;;;;;3.15;0.95;;;;;;;2.41;53.91;99516.55;1732114;81;21140;-43
2022/01/16 01:09:22;;;;;;;3.65;1.12;;;;;;;2.39;54.23;99540.12;1731386;82;21519;-43
2022/01/16 01:11:50;;;;;;;2.40;1.15;;;;;;;2.38;54.30;99539.88;1731494;81;20974;-43
2022/01/16 01:14:26;;;;;;;3.08;1.40;;;;;;;2.37;54.49;99556.47;1736717;81;21069;-43
2022/01/16 01:16:55;;;;;;;3.22;1.40;;;;;;;2.35;54.75;99546.63;1734987;81;21039;-43
2022/01/16 01:19:28;;;;;;;7.08;1.30;;;;;;;2.34;54.92;99511.60;1742556;81;21139;-43
2022/01/16 01:21:55;;;;;;;4.90;1.30;;;;;;;2.30;55.32;99522.66;1733211;81;20973;-43
2022/01/16 01:24:26;;;;;;;2.20;1.15;;;;;;;2.25;55.78;99552.73;1731546;82;21025;-43
2022/01/16 01:29:29;;;;;;;5.00;1.60;;;;;;;2.21;56.38;99543.73;1738503;81;20159;-43
2022/01/16 01:31:56;;;;;;;3.22;1.40;;;;;;;2.07;56.84;99573.16;1769715;79;21142;-43
2022/01/16 01:34:22;;;;;;;4.03;1.55;;;;;;;2.05;57.11;99549.39;1717635;83;20965;-43
2022/01/16 01:36:49;;;;;;;2.72;1.42;;;;;;;2.06;57.22;99566.23;1719599;82;21060;-42
2022/01/16 01:39:18;;;;;;;3.72;1.52;;;;;;;2.05;57.26;99599.40;1737877;79;20977;-42
2022/01/16 01:41:46;;;;;;;4.15;1.82;;;;;;;2.04;57.45;99554.48;1759019;81;21049;-43
2022/01/16 01:52:27;;;;;;;3.87;1.50;;;;;;;2.01;57.50;99406.70;1756889;81;20973;-42
2022/01/16 01:54:54;;;;;;;5.53;1.67;;;;;;;2.00;57.33;99447.09;1783108;79;21024;-43
2022/01/16 01:57:21;;;;;;;3.98;1.25;;;;;;;2.01;57.45;99438.78;1781287;80;21132;-43
2022/01/16 01:59:47;;;;;;;4.12;1.67;;;;;;;2.01;57.29;99476.21;1778673;80;21025;-43
2022/01/16 02:02:14;;;;;;;3.95;1.52;;;;;;;1.97;57.13;99514.55;1783628;80;21016;-43
2022/01/16 02:04:40;;;;;;;2.37;1.30;;;;;;;1.93;57.00;99509.01;1769706;80;21522;-43
2022/01/16 02:07:07;;;;;;;3.50;1.40;;;;;;;1.91;57.17;99517.86;1753216;80;21002;-43
2022/01/16 02:09:34;;;;;;;4.45;1.60;;;;;;;1.90;57.23;99522.16;1773365;80;21134;-42
2022/01/16 02:12:00;;;;;;;4.62;1.60;;;;;;;1.88;57.33;99541.19;1772941;78;21078;-42
2022/01/16 02:14:32;;;;;;;4.70;1.90;;;;;;;1.88;57.42;99543.86;1777793;78;21020;-43
2022/01/16 02:31:02;;;;;;;5.55;1.60;;;;;;;1.91;57.78;99531.23;1752291;80;21032;-43
2022/01/16 02:35:40;;;;;;;5.80;1.60;;;;;;;1.93;57.72;99540.30;1775137;80;21214;-43
2022/01/16 02:38:09;;;;;;;2.98;1.70;;;;;;;1.94;57.77;99556.56;1758580;80;20901;-43
2022/01/16 02:40:38;;;;;;;3.65;1.55;;;;;;;1.89;57.61;99562.80;1760326;78;21566;-43
2022/01/16 02:43:05;;;;;;;3.92;1.82;;;;;;;1.87;57.67;99568.21;1783403;80;21044;-43
2022/01/16 02:45:34;;;;;;;4.42;1.80;;;;;;;1.84;57.57;99565.57;1781698;80;21824;-43
2022/01/16 02:48:06;;;;;;;4.47;1.80;;;;;;;1.83;57.77;99584.05;1771849;79;21115;-43
2022/01/16 02:50:34;;;;;;;4.37;1.67;;;;;;;1.81;57.69;99592.91;1773410;79;20999;-43
2022/01/16 02:53:08;;;;;;;3.15;1.30;;;;;;;1.81;57.69;99576.87;1788723;79;20933;-43
2022/01/16 02:55:33;;;;;;;3.85;1.47;;;;;;;1.82;57.77;99577.66;1717150;83;20978;-43
2022/01/16 02:57:59;;;;;;;4.22;1.55;;;;;;;1.79;57.66;99584.95;1768713;80;21032;-43
2022/01/16 03:00:26;;;;;;;3.62;1.50;;;;;;;1.78;57.67;99586.83;1752837;80;21702;-43
2022/01/16 03:02:52;;;;;;;4.42;1.70;;;;;;;1.80;57.88;99589.97;1808999;78;21424;-43
2022/01/16 03:05:19;;;;;;;5.00;1.67;;;;;;;1.80;57.86;99593.19;1811595;79;21292;-43
2022/01/16 03:07:45;;;;;;;4.70;1.35;;;;;;;1.77;57.58;99594.59;1804852;78;21028;-42
2022/01/16 03:13:01;;;;;;;4.35;1.98;;;;;;;1.78;57.47;99605.53;1753368;80;21131;-42
2022/01/16 03:15:28;;;;;;;4.67;1.40;;;;;;;1.75;57.33;99593.54;1752389;81;20968;-43
2022/01/16 03:23:11;;;;;;;3.10;1.37;;;;;;;1.71;56.69;99602.44;1783606;80;21078;-42
2022/01/16 03:25:38;;;;;;;3.15;1.60;;;;;;;1.72;56.95;99596.81;1783383;80;21133;-42
2022/01/16 03:28:05;;;;;;;3.37;1.32;;;;;;;1.73;57.03;99602.95;1778354;80;21005;-43
2022/01/16 03:30:32;;;;;;;8.65;1.30;;;;;;;1.74;57.10;99598.63;1767849;80;21036;-43
2022/01/16 03:32:59;;;;;;;3.52;1.70;;;;;;;1.72;57.17;99600.02;1783482;80;21334;-43
2022/01/16 03:35:26;;;;;;;3.37;1.55;;;;;;;1.74;57.18;99601.88;1773858;78;21072;-43
2022/01/16 03:37:52;;;;;;;6.17;1.85;;;;;;;1.75;57.27;99604.77;1754606;80;21124;-42
2022/01/16 03:40:21;;;;;;;3.75;1.65;;;;;;;1.77;57.38;99607.95;1761134;80;21002;-43
2022/01/16 03:42:49;;;;;;;4.45;1.67;;;;;;;1.79;57.37;99619.16;1783435;80;21029;-43
2022/01/16 03:45:15;;;;;;;4.12;1.77;;;;;;;1.82;57.36;99611.87;1784259;80;21533;-43
2022/01/16 03:47:42;;;;;;;7.20;1.87;;;;;;;1.82;57.18;99619.89;1784023;80;21028;-43
2022/01/16 03:50:10;;;;;;;3.25;1.57;;;;;;;1.81;57.14;99619.63;1784189;80;21050;-43
2022/01/16 03:52:37;;;;;;;4.10;1.40;;;;;;;1.81;56.93;99616.16;1781703;80;20965;-43
2022/01/16 03:55:07;;;;;;;2.90;1.40;;;;;;;1.78;57.04;99620.77;1783564;80;20980;-43
2022/01/16 03:57:33;;;;;;;4.62;1.72;;;;;;;1.78;56.94;99622.11;1765963;80;21072;-43
2022/01/16 04:00:00;;;;;;;5.58;1.65;;;;;;;1.78;56.73;99623.45;1752988;80;21555;-43
2022/01/16 04:02:26;;;;;;;3.90;1.75;;;;;;;1.77;56.28;99619.98;1753514;80;21818;-43
2022/01/16 04:04:54;;;;;;;3.15;1.75;;;;;;;1.74;55.82;99610.66;1757884;80;20930;-43
2022/01/16 04:07:27;;;;;;;4.45;1.42;;;;;;;1.69;55.60;99620.67;1781760;80;21001;-42
2022/01/16 04:09:50;;;;;;;4.47;1.42;;;;;;;1.68;55.81;99619.08;1717895;83;21029;-42
2022/01/16 04:12:21;;;;;;;2.58;1.20;;;;;;;1.68;55.94;99609.72;1738587;81;21018;-43
2022/01/16 04:17:21;;;;;;;2.50;1.27;;;;;;;1.65;55.82;99614.30;1759273;81;21014;-43
2022/01/16 04:19:50;;;;;;;6.55;1.60;;;;;;;1.63;55.81;99609.81;1763504;81;21559;-42
2022/01/16 04:22:17;;;;;;;2.65;1.22;;;;;;;1.60;56.11;99612.52;1763948;81;21026;-43
2022/01/16 04:24:43;;;;;;;4.37;1.57;;;;;;;1.61;56.27;99614.10;1758420;81;21041;-42
2022/01/16 04:27:12;;;;;;;3.65;1.72;;;;;;;1.63;56.35;99615.16;1749209;79;21127;-42
2022/01/16 04:29:39;;;;;;;4.62;1.60;;;;;;;1.62;56.25;99614.90;1770558;81;21036;-43
2022/01/16 04:32:07;;;;;;;4.17;1.57;;;;;;;1.62;55.80;99620.24;1745953;81;21539;-43
2022/01/16 04:34:34;;;;;;;3.25;1.40;;;;;;;1.60;55.98;99623.20;1737000;82;21013;-43
2022/01/16 04:37:01;;;;;;;3.27;1.60;;;;;;;1.60;56.18;99618.39;1736602;82;21096;-42
2022/01/16 04:39:34;;;;;;;5.40;1.50;;;;;;;1.61;56.13;99624.79;1744730;81;21614;-43
2022/01/16 04:44:42;;;;;;;4.20;1.52;;;;;;;1.60;56.17;99619.73;1767054;81;21052;-43
2022/01/16 04:47:09;;;;;;;2.95;1.40;;;;;;;1.61;56.28;99625.33;1767257;81;22125;-42
2022/01/16 04:49:35;;;;;;;3.67;1.25;;;;;;;1.62;55.87;99623.71;1767356;81;21554;-43
2022/01/16 04:52:03;;;;;;;5.12;1.60;;;;;;;1.60;55.90;99627.20;1764801;81;22353;-43
2022/01/16 04:54:31;;;;;;;3.17;1.55;;;;;;;1.60;55.94;99615.72;1744094;81;21041;-43
2022/01/16 04:56:58;;;;;;;3.65;1.80;;;;;;;1.58;55.94;99626.73;1749421;82;21064;-43
2022/01/16 04:59:24;;;;;;;4.35;1.70;;;;;;;1.60;56.04;99631.76;1740434;81;21049;-43
2022/01/16 05:01:51;;;;;;;3.12;1.50;;;;;;;1.59;56.00;99639.00;1736782;81;21092;-43
2022/01/16 05:04:18;;;;;;;5.17;2.15;;;;;;;1.57;56.11;99638.49;1736947;82;21134;-43
2022/01/16 05:06:44;;;;;;;5.08;1.70;;;;;;;1.57;56.13;99639.83;1736620;82;20937;-43
2022/01/16 05:09:10;;;;;;;4.90;1.77;;;;;;;1.58;55.94;99645.97;1739282;81;21061;-43
2022/01/16 05:11:39;;;;;;;3.67;1.50;;;;;;;1.56;55.45;99644.91;1761711;81;21049;-43
2022/01/16 05:16:40;;;;;;;4.20;1.72;;;;;;;1.55;55.11;99646.56;1752436;81;21136;-43
2022/01/16 05:19:12;;;;;;;3.17;1.30;;;;;;;1.54;55.08;99656.45;1764708;78;20980;-43
2022/01/16 05:21:40;;;;;;;2.83;1.37;;;;;;;1.53;54.99;99658.08;1782380;80;21020;-43
2022/01/16 05:24:10;;;;;;;2.37;1.35;;;;;;;1.49;54.68;99661.09;1760662;80;20993;-43
2022/01/16 05:26:39;;;;;;;2.45;1.30;;;;;;;1.47;54.83;99661.37;1752403;81;21010;-43
2022/01/16 05:29:06;;;;;;;3.67;1.30;;;;;;;1.45;54.35;99650.73;1763068;80;21075;-43
2022/01/16 05:31:33;;;;;;;2.67;1.40;;;;;;;1.44;54.53;99655.82;1781185;80;20922;-43
2022/01/16 05:34:00;;;;;;;2.30;1.10;;;;;;;1.46;54.53;99653.64;1783588;80;20964;-43
2022/01/16 05:36:26;;;;;;;2.70;1.45;;;;;;;1.48;54.31;99656.82;1783449;80;21588;-43
2022/01/16 05:38:53;;;;;;;2.60;1.40;;;;;;;1.44;54.20;99654.48;1779067;80;21068;-43
2022/01/16 05:41:20;;;;;;;3.70;1.47;;;;;;;1.43;54.37;99652.36;1766587;80;21202;-42
2022/01/16 05:43:47;;;;;;;3.40;1.30;;;;;;;1.45;54.64;99664.09;1783514;80;21000;-43
2022/01/16 05:46:14;;;;;;;4.70;1.70;;;;;;;1.43;54.66;99664.92;1754802;79;21084;-42
2022/01/16 05:48:41;;;;;;;3.65;1.70;;;;;;;1.43;54.94;99667.05;1752569;80;21004;-43
2022/01/16 05:51:08;;;;;;;2.00;1.25;;;;;;;1.45;55.10;99663.55;1754420;80;21064;-42
2022/01/16 05:53:37;;;;;;;2.55;1.27;;;;;;;1.45;54.95;99664.09;1772830;80;21806;-43
2022/01/16 05:56:05;;;;;;;3.93;1.30;;;;;;;1.43;54.92;99654.23;1782767;80;21004;-43
2022/01/16 05:58:31;;;;;;;3.95;1.60;;;;;;;1.44;55.06;99666.51;1781588;80;21024;-42
2022/01/16 06:00:58;;;;;;;6.28;1.90;;;;;;;1.43;55.24;99671.59;1777684;80;21029;-43
2022/01/16 06:03:25;;;;;;;5.58;1.50;;;;;;;1.45;55.50;99676.12;1783645;78;21294;-43
2022/01/16 06:05:51;;;;;;;3.12;1.55;;;;;;;1.45;55.73;99668.90;1786448;78;21098;-43
2022/01/16 06:08:18;;;;;;;5.33;1.40;;;;;;;1.46;55.49;99658.98;1755297;80;20976;-43
2022/01/16 06:10:44;;;;;;;3.00;1.42;;;;;;;1.44;55.39;99658.49;1773657;80;20992;-42
2022/01/16 06:13:12;;;;;;;2.40;1.30;;;;;;;1.41;54.63;99661.19;1767002;80;21023;-43
2022/01/16 06:15:40;;;;;;;2.30;1.20;;;;;;;1.39;54.36;99670.59;1776649;78;21045;-42
2022/01/16 06:18:07;;;;;;;4.62;1.20;;;;;;;1.37;54.33;99676.22;1815184;78;21146;-43
2022/01/16 06:20:35;;;;;;;3.58;1.72;;;;;;;1.38;53.62;99681.02;1782418;78;21459;-43
2022/01/16 06:23:01;;;;;;;5.85;1.40;;;;;;;1.38;53.71;99679.15;1777881;80;21519;-42
2022/01/16 06:25:28;;;;;;;3.42;1.50;;;;;;;1.39;53.73;99688.75;1778463;80;21480;-43
2022/01/16 06:27:55;;;;;;;2.65;1.40;;;;;;;1.40;53.74;99684.20;1782382;80;21000;-43
2022/01/16 06:30:21;;;;;;;5.15;1.30;;;;;;;1.43;53.80;99689.75;1766617;78;21136;-42
2022/01/16 06:32:48;;;;;;;4.30;1.50;;;;;;;1.37;53.91;99680.77;1766015;80;21026;-42
2022/01/16 06:35:15;;;;;;;4.40;1.55;;;;;;;1.43;54.19;99692.97;1769927;79;21411;-42
2022/01/16 06:37:43;;;;;;;3.08;1.40;;;;;;;1.45;54.36;99690.81;1782517;78;20968;-43
2022/01/16 06:40:12;;;;;;;2.98;1.67;;;;;;;1.48;54.28;99691.55;1778723;80;21049;-43
2022/01/16 06:42:39;;;;;;;4.15;1.57;;;;;;;1.49;54.25;99701.16;1780043;79;21692;-43
2022/01/16 06:45:08;;;;;;;3.25;1.42;;;;;;;1.47;53.84;99699.31;1799967;79;20926;-43
2022/01/16 06:47:34;;;;;;;6.78;1.90;;;;;;;1.44;53.36;99704.70;1780212;78;21004;-43
2022/01/16 06:50:01;;;;;;;3.02;1.52;;;;;;;1.43;53.09;99700.98;1784439;78;20937;-42
2022/01/16 06:52:27;;;;;;;5.37;1.32;;;;;;;1.43;53.11;99701.78;1782212;80;20985;-43
2022/01/16 06:54:54;;;;;;;3.35;1.40;;;;;;;1.42;53.02;99706.06;1781330;78;21105;-43
2022/01/16 06:57:21;;;;;;;2.77;1.22;;;;;;;1.42;52.90;99696.72;1782295;80;21515;-43
2022/01/16 06:59:48;;;;;;;3.05;1.40;;;;;;;1.44;53.07;99703.91;1780199;80;21060;-43
2022/01/16 07:02:16;;;;;;;4.10;1.32;;;;;;;1.45;52.90;99701.50;1780939;80;21032;-43
2022/01/16 07:04:45;;;;;;;2.55;1.37;;;;;;;1.45;52.86;99706.30;1774353;78;21048;-42
2022/01/16 07:07:12;;;;;;;3.33;1.45;;;;;;;1.47;52.74;99712.66;1773957;80;21808;-43
2022/01/16 07:09:39;;;;;;;3.60;1.62;;;;;;;1.48;53.36;99708.92;1779531;78;21000;-43
2022/01/16 07:12:09;;;;;;;3.95;1.25;;;;;;;1.52;53.22;99713.92;1788402;78;20973;-43
2022/01/16 07:14:35;;;;;;;4.17;1.27;;;;;;;1.57;53.12;99715.19;1785397;79;21080;-43
2022/01/16 07:17:03;;;;;;;3.65;1.35;;;;;;;1.62;53.27;99716.45;1788357;78;21711;-43
2022/01/16 07:19:31;;;;;;;2.27;1.30;;;;;;;1.65;53.03;99723.87;1774070;78;20986;-43
2022/01/16 07:21:57;;;;;;;3.25;1.25;;;;;;;1.70;53.02;99724.58;1772885;80;21055;-43
2022/01/16 07:24:24;;;;;;;3.80;1.45;;;;;;;1.75;52.93;99723.70;1780578;80;21069;-43
2022/01/16 07:26:51;;;;;;;2.90;1.25;;;;;;;1.76;52.82;99725.30;1767245;79;21018;-42
2022/01/16 07:29:17;;;;;;;2.27;1.40;;;;;;;1.74;53.03;99728.83;1783429;80;21083;-43
2022/01/16 07:31:44;;;;;;;4.22;1.50;;;;;;;1.73;53.03;99737.92;1766288;80;21171;-43
2022/01/16 07:34:11;;;;;;;3.20;1.57;;;;;;;1.70;53.27;99738.48;1757761;81;21477;-42
2022/01/16 07:36:38;;;;;;;4.53;1.67;;;;;;;1.69;53.50;99739.02;1761453;80;21017;-43
2022/01/16 07:39:05;;;;;;;6.10;1.82;;;;;;;1.68;53.75;99742.80;1747875;80;21009;-43
2022/01/16 07:41:32;;;;;;;3.37;1.62;;;;;;;1.68;53.89;99744.68;1757532;80;21578;-43
2022/01/16 07:46:44;;;;;;;3.15;1.70;;;;;;;1.70;54.12;99737.95;1808188;77;23439;-43
2022/01/16 07:49:11;;;;;;;3.52;1.80;;;;;;;1.59;54.28;99744.55;1768522;80;21903;-43
2022/01/16 07:51:37;;;;;;;4.00;1.70;;;;;;;1.59;54.27;99733.87;1776795;78;21044;-42
2022/01/16 07:54:04;;;;;;;4.90;1.70;;;;;;;1.62;54.30;99731.14;1747277;81;20988;-42
2022/01/16 07:56:31;;;;;;;3.75;1.72;;;;;;;1.64;53.83;99734.33;1718306;82;20977;-42
2022/01/16 07:58:58;;;;;;;4.20;1.77;;;;;;;1.64;53.50;99738.34;1715734;82;21038;-43
2022/01/16 08:01:25;;;;;;;4.55;1.40;;;;;;;1.65;53.53;99737.23;1738444;82;21002;-42
2022/01/16 08:03:51;;;;;;;5.28;1.70;;;;;;;1.68;52.96;99738.00;1723638;81;21192;-42
2022/01/16 08:06:18;;;;;;;3.90;1.65;;;;;;;1.71;53.14;99731.52;1714317;82;20988;-42
2022/01/16 08:08:45;;;;;;;4.08;1.60;;;;;;;1.78;52.90;99740.52;1703002;84;21004;-42
2022/01/16 08:11:11;;;;;;;5.55;1.70;;;;;;;1.80;52.31;99736.20;1725835;82;20977;-42
2022/01/16 08:13:38;;;;;;;3.42;1.32;;;;;;;1.82;51.92;99733.49;1707402;82;21059;-42
2022/01/16 08:16:06;;;;;;;3.72;1.42;;;;;;;1.82;51.59;99741.52;1714829;82;21118;-42
2022/01/16 08:18:34;;;;;;;4.70;1.40;;;;;;;1.82;51.81;99746.06;1737197;82;20992;-42
2022/01/16 08:21:01;;;;;;;1.90;1.00;;;;;;;1.81;52.05;99745.27;1733433;82;21527;-42
2022/01/16 08:23:28;;;;;;;2.83;1.30;;;;;;;1.87;52.27;99743.31;1703027;84;21004;-42
2022/01/16 08:25:55;;;;;;;3.80;1.40;;;;;;;1.92;51.74;99744.56;1706357;82;21008;-42
2022/01/16 08:28:21;;;;;;;4.70;1.60;;;;;;;1.91;51.45;99744.30;1727427;82;21930;-42
2022/01/16 08:30:48;;;;;;;6.35;1.70;;;;;;;1.67;51.75;99707.01;1728612;82;21566;-42
2022/01/16 08:33:14;;;;;;;3.65;1.30;;;;;;;1.88;51.87;99741.69;1731424;82;20987;-42
2022/01/16 08:35:41;;;;;;;4.40;1.50;;;;;;;1.90;51.57;99752.87;1703034;84;21810;-42
2022/01/16 08:38:08;;;;;;;2.92;1.50;;;;;;;1.89;51.43;99751.27;1729892;82;21030;-42
2022/01/16 08:40:35;;;;;;;6.03;1.90;;;;;;;1.89;50.77;99766.55;1717306;82;21143;-42
2022/01/16 08:43:08;;;;;;;4.00;1.30;;;;;;;1.86;50.86;99767.91;1724868;82;21051;-42
2022/01/16 08:45:30;;;;;;;2.72;1.20;;;;;;;1.80;50.18;99769.06;1723192;82;20985;-42
2022/01/16 08:47:57;;;;;;;5.22;1.40;;;;;;;1.73;49.84;99771.33;1715381;83;21018;-42
2022/01/16 08:50:23;;;;;;;4.90;1.57;;;;;;;1.67;50.29;99767.94;1718746;83;21044;-42
2022/01/16 08:52:50;;;;;;;3.20;1.67;;;;;;;1.60;50.40;99756.81;1700983;83;21544;-42
2022/01/16 08:55:17;;;;;;;4.37;1.22;;;;;;;1.59;50.60;99758.45;1730029;82;20969;-42
2022/01/16 08:57:44;;;;;;;5.30;1.77;;;;;;;1.59;50.55;99765.13;1736178;82;21829;-42
2022/01/16 09:00:12;;;;;;;7.30;1.30;;;;;;;1.56;50.62;99757.14;1719131;83;21021;-42
2022/01/16 09:02:38;;;;;;;3.80;1.27;;;;;;;1.56;50.41;99748.33;1724154;83;21013;-42
2022/01/16 09:05:07;;;;;;;2.02;1.02;;;;;;;1.53;50.28;99737.69;1725042;82;21259;-42
2022/01/16 09:07:33;;;;;;;2.33;1.20;;;;;;;1.51;49.63;99731.03;1751614;80;21033;-42
2022/01/16 09:10:01;;;;;;;2.72;1.30;;;;;;;1.47;49.97;99740.72;1763648;80;20975;-42
2022/01/16 09:12:30;;;;;;;3.05;1.40;;;;;;;1.44;50.01;99733.30;1767813;80;21019;-42
2022/01/16 09:14:57;;;;;;;2.20;1.05;;;;;;;1.42;50.31;99739.45;1771313;79;21047;-42
2022/01/16 09:17:24;;;;;;;3.30;1.57;;;;;;;1.39;50.45;99726.16;1767254;79;21147;-42
2022/01/16 09:19:51;;;;;;;5.15;1.70;;;;;;;1.41;50.68;99736.52;1766424;80;20937;-42
2022/01/16 09:22:17;;;;;;;4.30;2.00;;;;;;;1.39;50.26;99736.84;1765083;80;21034;-42
2022/01/16 09:24:44;;;;;;;4.10;2.40;;;;;;;1.40;49.96;99730.95;1772742;80;21022;-42
2022/01/16 09:27:10;;;;;;;4.45;1.80;;;;;;;1.40;50.38;99734.42;1766199;80;21100;-42
2022/01/16 09:29:37;;;;;;;5.62;2.15;;;;;;;1.42;50.60;99724.77;1760733;80;21141;-42
2022/01/16 09:32:06;;;;;;;2.65;1.30;;;;;;;1.45;50.22;99728.21;1774662;79;21331;-42
2022/01/16 09:34:33;;;;;;;4.67;1.40;;;;;;;1.47;49.77;99724.69;1769895;80;21302;-42
2022/01/16 09:37:04;;;;;;;3.05;1.40;;;;;;;1.47;50.18;99716.67;1765738;80;20957;-42
2022/01/16 09:39:28;;;;;;;4.62;1.42;;;;;;;1.47;50.09;99714.00;1779241;80;20993;-43
2022/01/16 09:41:55;;;;;;;4.65;1.70;;;;;;;1.48;50.55;99703.58;1771788;80;21835;-42
2022/01/16 09:44:21;;;;;;;4.85;1.87;;;;;;;1.53;50.54;99700.83;1776827;80;21578;-42
2022/01/16 09:46:48;;;;;;;5.33;1.87;;;;;;;1.55;50.38;99696.00;1771242;80;20984;-43
2022/01/16 09:49:15;;;;;;;4.20;1.72;;;;;;;1.53;49.87;99686.92;1773551;80;20965;-39
2022/01/16 09:51:42;;;;;;;3.27;1.52;;;;;;;1.51;50.11;99685.08;1778754;80;21072;-39
2022/01/16 09:54:08;;;;;;;4.97;1.50;;;;;;;1.54;50.64;99699.20;1763894;80;21154;-39
2022/01/16 09:56:35;;;;;;;4.47;1.62;;;;;;;1.56;49.74;99693.55;1731101;82;21600;-39
2022/01/16 09:59:04;;;;;;;2.65;1.37;;;;;;;1.56;49.82;99689.55;1745913;82;21048;-39
2022/01/16 10:01:31;;;;;;;4.08;1.57;;;;;;;1.55;49.85;99690.66;1770735;80;21512;-39
2022/01/16 10:03:57;;;;;;;3.95;1.55;;;;;;;1.56;49.65;99688.20;1782370;80;21076;-39
2022/01/16 10:06:24;;;;;;;3.65;1.32;;;;;;;1.61;49.86;99690.80;1775875;80;21507;-39
2022/01/16 10:08:54;;;;;;;4.10;1.30;;;;;;;1.66;50.08;99688.84;1775545;80;21063;-39
2022/01/16 10:11:36;;;;;;;5.03;1.40;;;;;;;1.70;49.51;99689.05;1769247;80;21012;-39
2022/01/16 10:14:13;;;;;;;3.95;1.67;;;;;;;1.70;49.72;99689.84;1770545;80;20977;-39
2022/01/16 10:16:36;;;;;;;10.35;3.02;;;;;;;1.73;49.91;99687.14;1770395;80;21036;-39
2022/01/16 10:19:04;;;;;;;5.03;2.27;;;;;;;1.76;50.24;99686.55;1770325;80;21130;-39
2022/01/16 10:21:38;;;;;;;6.37;2.20;;;;;;;1.85;49.58;99692.00;1766359;80;21503;-38
2022/01/16 10:24:25;;;;;;;4.50;1.80;;;;;;;1.87;49.38;99686.63;1773275;80;20957;-37
2022/01/16 10:27:14;;;;;;;3.37;1.42;;;;;;;1.88;49.39;99689.56;1781392;80;20998;-38
2022/01/16 10:29:51;;;;;;;5.33;1.62;;;;;;;1.90;49.70;99689.24;1660052;83;21527;-38
2022/01/16 10:32:31;;;;;;;4.58;1.70;;;;;;;1.93;49.77;99686.00;1692617;83;21148;-37
2022/01/16 10:35:24;;;;;;;4.90;1.72;;;;;;;1.91;49.22;99686.83;1695816;83;21530;-39
2022/01/16 10:37:53;;;;;;;3.08;1.32;;;;;;;1.85;48.96;99670.08;1689598;83;20967;-39
2022/01/16 10:40:32;;;;;;;3.15;1.50;;;;;;;1.81;48.85;99680.31;1730648;82;21088;-39
2022/01/16 10:43:04;;;;;;;4.17;1.40;;;;;;;1.76;49.08;99677.19;1729813;82;21051;-39
2022/01/16 10:45:29;;;;;;;4.40;1.57;;;;;;;1.78;49.33;99672.89;1680431;83;21752;-39
2022/01/16 10:47:58;;;;;;;2.50;1.02;;;;;;;1.77;49.19;99669.42;1691284;84;21631;-39
2022/01/16 10:50:29;;;;;;;3.20;1.32;;;;;;;1.77;48.78;99661.95;1774087;80;20970;-39
2022/01/16 10:53:03;;;;;;;4.17;1.60;;;;;;;1.78;49.16;99669.68;1773767;80;21021;-39
2022/01/16 10:55:49;;;;;;;3.42;1.35;;;;;;;1.73;48.74;99666.55;1755228;80;21080;-39
2022/01/16 10:58:43;;;;;;;4.83;1.65;;;;;;;1.70;49.14;99673.01;1773402;80;21168;-39
2022/01/16 11:01:16;;;;;;;4.60;1.70;;;;;;;1.67;49.51;99666.38;1743161;82;21542;-39
2022/01/16 11:03:53;;;;;;;3.87;1.45;;;;;;;1.69;49.85;99666.10;1743249;82;20949;-39
2022/01/16 11:06:23;;;;;;;3.87;1.80;;;;;;;1.74;49.65;99661.44;1749576;80;21009;-38
2022/01/16 11:08:57;;;;;;;3.67;1.62;;;;;;;1.77;49.54;99660.07;1769873;80;21543;-39
2022/01/16 11:11:25;;;;;;;4.08;1.60;;;;;;;1.80;49.54;99668.03;1767680;81;21138;-39
2022/01/16 11:13:54;;;;;;;5.37;1.87;;;;;;;1.82;49.70;99662.66;1771092;80;20906;-39
2022/01/16 11:16:23;;;;;;;3.00;1.60;;;;;;;1.82;49.50;99652.51;1773678;80;20999;-39
2022/01/16 11:18:51;;;;;;;6.08;2.08;;;;;;;1.83;49.49;99658.91;1773847;80;21076;-39
2022/01/16 11:21:30;;;;;;;4.67;1.72;;;;;;;1.81;49.15;99649.58;1773899;80;21001;-39
2022/01/16 11:26:22;;;;;;;4.70;1.90;;;;;;;1.75;50.03;99646.99;1773849;80;20975;-39
2022/01/16 11:28:52;;;;;;;5.58;1.80;;;;;;;1.74;50.14;99639.29;1773915;80;20987;-39
2022/01/16 11:31:19;;;;;;;8.80;2.00;;;;;;;1.73;50.10;99637.16;1774141;80;20995;-38
2022/01/16 11:33:47;;;;;;;6.97;2.22;;;;;;;1.72;50.25;99634.77;1771588;80;21037;-39
2022/01/16 11:36:21;;;;;;;5.47;1.80;;;;;;;1.70;50.32;99634.26;1764841;80;21133;-39
2022/01/16 11:38:59;;;;;;;3.45;1.62;;;;;;;1.70;50.27;99631.58;1763396;80;21039;-39
2022/01/16 11:41:33;;;;;;;5.12;1.80;;;;;;;1.68;49.75;99629.23;1773666;80;20977;-39
2022/01/16 11:44:03;;;;;;;4.55;1.65;;;;;;;1.65;49.95;99635.68;1773667;80;21008;-38
2022/01/16 11:46:32;;;;;;;4.85;1.77;;;;;;;1.66;49.92;99641.28;1773388;79;21107;-38
2022/01/16 11:49:06;;;;;;;5.10;1.80;;;;;;;1.67;49.96;99634.85;1772129;80;21484;-38
2022/01/16 11:51:40;;;;;;;4.10;2.00;;;;;;;1.69;49.65;99639.38;1779475;79;21495;-38
2022/01/16 11:54:29;;;;;;;6.05;1.90;;;;;;;1.69;50.12;99640.71;1789826;79;20941;-41
2022/01/16 11:56:59;;;;;;;3.92;1.75;;;;;;;1.74;50.31;99636.61;1771736;79;21041;-40
2022/01/16 11:59:40;;;;;;;6.20;2.02;;;;;;;1.76;50.24;99635.77;1782010;80;21005;-41
2022/01/16 12:02:16;;;;;;;3.17;1.57;;;;;;;1.73;50.07;99629.14;1799805;79;21807;-41
2022/01/16 12:04:50;;;;;;;5.53;2.25;;;;;;;1.71;49.85;99624.62;1790596;79;21013;-41
2022/01/16 12:07:25;;;;;;;6.10;2.00;;;;;;;1.70;49.57;99628.91;1770493;80;21503;-41
2022/01/16 12:09:57;;;;;;;4.75;1.90;;;;;;;1.67;49.60;99625.50;1782812;79;20938;-41
2022/01/16 12:12:28;;;;;;;3.62;1.50;;;;;;;1.64;50.06;99629.56;1778500;79;21000;-41
2022/01/16 12:15:10;;;;;;;3.17;1.70;;;;;;;1.61;50.58;99631.47;1741159;82;21139;-42
2022/01/16 12:20:20;;;;;;;6.25;1.80;;;;;;;1.60;50.40;99627.75;1770224;79;20993;-41
2022/01/16 12:23:04;;;;;;;4.28;1.77;;;;;;;1.56;50.16;99629.42;1774627;79;21298;-41
2022/01/16 12:25:41;;;;;;;4.20;1.80;;;;;;;1.52;50.19;99621.75;1769724;80;21041;-41
2022/01/16 12:28:15;;;;;;;3.52;1.75;;;;;;;1.46;50.32;99619.70;1765521;80;21130;-41
2022/01/16 12:30:59;;;;;;;3.83;1.67;;;;;;;1.48;50.49;99628.23;1770303;80;21029;-42
2022/01/16 12:33:51;;;;;;;6.75;2.17;;;;;;;1.49;50.54;99626.36;1767176;80;20968;-41
2022/01/16 12:36:19;;;;;;;4.62;2.05;;;;;;;1.54;50.74;99619.59;1779351;80;21029;-41
2022/01/16 12:39:08;;;;;;;5.17;2.10;;;;;;;1.64;50.80;99623.42;1781115;80;21072;-41
2022/01/16 12:41:43;;;;;;;5.70;2.10;;;;;;;1.68;50.70;99619.87;1766188;79;21484;-41